createdAt,value
2022-08-06T00:02:11.778Z,100.00
2022-08-06T00:07:18.625Z,100.00
2022-08-06T00:12:29.650Z,100.00
2022-08-06T00:17:33.027Z,100.00
2022-08-06T00:22:37.074Z,100.00
2022-08-06T00:27:40.258Z,100.00
2022-08-06T00:32:45.389Z,100.00
2022-08-06T00:37:58.506Z,100.00
2022-08-06T00:43:06.210Z,100.00
2022-08-06T00:48:31.154Z,100.00
2022-08-06T00:53:37.862Z,100.00
2022-08-06T00:58:41.339Z,100.00
2022-08-06T01:03:51.837Z,100.00
2022-08-06T01:08:56.506Z,100.00
2022-08-06T01:14:03.335Z,100.00
2022-08-06T01:21:20.813Z,100.00
2022-08-06T01:25:11.753Z,100.00
2022-08-06T01:30:20.403Z,100.00
2022-08-06T01:35:47.530Z,100.00
2022-08-06T01:40:56.800Z,100.00
2022-08-06T01:46:02.927Z,100.00
2022-08-06T01:51:17.339Z,100.00
2022-08-06T01:56:56.786Z,100.00
2022-08-06T02:01:59.680Z,100.00
2022-08-06T02:08:34.143Z,100.00
2022-08-06T02:12:32.177Z,100.00
2022-08-06T02:18:03.755Z,100.00
2022-08-06T02:23:08.712Z,100.00
2022-08-06T02:28:21.207Z,100.00
2022-08-06T02:34:01.067Z,100.00
2022-08-06T02:38:55.683Z,100.00
2022-08-06T02:44:07.743Z,100.00
2022-08-06T02:49:25.687Z,100.00
2022-08-06T02:54:46.133Z,100.00
2022-08-06T02:59:55.286Z,100.00
2022-08-06T03:05:01.950Z,100.00
2022-08-06T03:10:12.969Z,100.00
2022-08-06T03:15:58.175Z,100.00
2022-08-06T03:20:41.578Z,100.00
2022-08-06T03:25:45.974Z,100.00
2022-08-06T03:30:55.325Z,100.00
2022-08-06T03:36:03.074Z,100.00
2022-08-06T03:41:08.663Z,100.00
2022-08-06T03:46:12.049Z,100.00
2022-08-06T03:51:29.786Z,100.00
2022-08-06T03:56:46.270Z,100.00
2022-08-06T04:01:52.921Z,100.00
2022-08-06T04:07:02.654Z,100.00
2022-08-06T04:12:37.586Z,100.00
2022-08-06T04:17:32.787Z,100.00
2022-08-06T04:23:00.217Z,100.00
2022-08-06T04:28:02.145Z,100.00
2022-08-06T04:33:06.181Z,100.00
2022-08-06T04:38:14.567Z,100.00
2022-08-06T04:43:19.309Z,100.00
2022-08-06T04:48:23.403Z,100.00
2022-08-06T04:53:43.310Z,100.00
2022-08-06T04:58:51.592Z,100.00
2022-08-06T05:04:08.977Z,100.00
2022-08-06T05:09:29.263Z,100.00
2022-08-06T05:15:01.979Z,100.00
2022-08-06T05:20:26.477Z,100.00
2022-08-06T05:25:35.942Z,100.00
2022-08-06T05:30:44.871Z,100.00
2022-08-06T05:36:01.755Z,100.00
2022-08-06T05:41:09.323Z,100.00
2022-08-06T05:46:14.522Z,100.00
2022-08-06T05:51:43.077Z,100.00
2022-08-06T05:56:53.521Z,100.00
2022-08-06T06:01:57.704Z,100.00
2022-08-06T06:07:04.353Z,100.00
2022-08-06T06:12:10.850Z,100.00
2022-08-06T06:17:28.090Z,100.00
2022-08-06T06:22:51.781Z,100.00
2022-08-06T06:27:59.646Z,100.00
2022-08-06T06:33:14.267Z,100.00
2022-08-06T06:38:26.273Z,99.85
2022-08-06T06:43:44.104Z,86.48
2022-08-06T06:48:50.374Z,98.84
2022-08-06T06:54:07.080Z,100.00
2022-08-06T06:59:19.572Z,100.00
2022-08-06T07:04:26.581Z,100.00
2022-08-06T07:09:41.337Z,100.00
2022-08-06T07:15:01.299Z,76.71
2022-08-06T07:20:08.822Z,71.34
2022-08-06T07:25:15.751Z,78.11
2022-08-06T07:30:22.313Z,64.49
2022-08-06T07:35:28.580Z,55.24
2022-08-06T07:40:33.603Z,54.11
2022-08-06T07:45:50.893Z,51.78
2022-08-06T07:50:58.908Z,49.07
2022-08-06T07:56:02.627Z,47.13
2022-08-06T08:01:07.679Z,48.58
2022-08-06T08:06:22.955Z,46.74
2022-08-06T08:11:38.469Z,44.48
2022-08-06T08:16:51.964Z,45.45
2022-08-06T08:21:57.333Z,41.90
2022-08-06T08:27:12.115Z,39.13
2022-08-06T08:32:24.246Z,40.58
2022-08-06T08:37:32.243Z,39.93
2022-08-06T08:42:38.585Z,39.26
2022-08-06T08:47:53.457Z,37.15
2022-08-06T08:53:03.607Z,38.02
2022-08-06T08:58:40.788Z,40.88
2022-08-06T09:03:32.166Z,38.50
2022-08-06T09:08:58.966Z,39.68
2022-08-06T09:14:00.805Z,47.36
2022-08-06T09:19:10.575Z,40.42
2022-08-06T09:24:14.471Z,37.47
2022-08-06T09:29:33.714Z,36.46
2022-08-06T09:34:41.766Z,45.63
2022-08-06T09:40:05.882Z,44.93
2022-08-06T09:45:18.820Z,35.18
2022-08-06T09:50:43.321Z,35.78
2022-08-06T09:55:47.027Z,34.34
2022-08-06T10:00:51.095Z,36.00
2022-08-06T10:06:14.535Z,37.79
2022-08-06T10:11:33.481Z,36.42
2022-08-06T10:16:44.452Z,31.42
2022-08-06T10:21:49.097Z,31.67
2022-08-06T10:26:54.495Z,33.65
2022-08-06T10:31:58.399Z,40.93
2022-08-06T10:37:07.818Z,47.59
2022-08-06T10:42:27.787Z,51.37
2022-08-06T10:49:01.551Z,41.93
2022-08-06T10:52:56.749Z,38.11
2022-08-06T10:58:00.678Z,33.14
2022-08-06T11:03:14.523Z,34.96
2022-08-06T11:08:41.112Z,34.12
2022-08-06T11:14:03.648Z,35.58
2022-08-06T11:19:09.652Z,31.93
2022-08-06T11:24:14.432Z,34.93
2022-08-06T11:29:19.020Z,37.05
2022-08-06T11:34:34.489Z,40.11
2022-08-06T11:40:07.149Z,44.54
2022-08-06T11:46:21.032Z,43.97
2022-08-06T11:50:33.257Z,43.27
2022-08-06T11:56:10.027Z,41.32
2022-08-06T12:01:33.361Z,43.49
2022-08-06T12:06:35.364Z,48.15
2022-08-06T12:11:39.392Z,45.95
2022-08-06T12:16:53.212Z,43.27
2022-08-06T12:21:57.750Z,46.65
2022-08-06T12:27:01.906Z,46.02
2022-08-06T12:32:21.710Z,39.39
2022-08-06T12:37:41.438Z,43.98
2022-08-06T12:42:54.980Z,45.75
2022-08-06T12:48:03.232Z,42.49
2022-08-06T12:53:11.329Z,42.47
2022-08-06T12:58:41.187Z,43.12
2022-08-06T13:03:49.098Z,43.07
2022-08-06T13:08:54.194Z,44.21
2022-08-06T13:14:14.182Z,45.79
2022-08-06T13:19:21.208Z,47.21
2022-08-06T13:24:35.520Z,45.94
2022-08-06T13:30:33.809Z,45.47
2022-08-06T13:35:04.302Z,39.50
2022-08-06T13:40:07.788Z,39.22
2022-08-06T13:45:57.126Z,35.93
2022-08-06T13:50:47.392Z,35.47
2022-08-06T13:56:01.359Z,34.71
2022-08-06T14:01:07.569Z,31.80
2022-08-06T14:06:10.324Z,32.39
2022-08-06T14:11:12.960Z,30.19
2022-08-06T14:16:17.616Z,31.70
2022-08-06T14:21:20.098Z,34.26
2022-08-06T14:26:25.133Z,38.69
2022-08-06T14:31:32.242Z,44.01
2022-08-06T14:36:54.965Z,44.64
2022-08-06T14:42:15.208Z,45.94
2022-08-06T14:47:56.583Z,44.28
2022-08-06T14:52:42.153Z,39.17
2022-08-06T14:58:04.624Z,36.06
2022-08-06T15:03:13.652Z,35.15
2022-08-06T15:08:16.768Z,36.07
2022-08-06T15:13:19.620Z,36.16
2022-08-06T15:18:54.261Z,39.82
2022-08-06T15:23:53.422Z,42.10
2022-08-06T15:28:57.409Z,42.19
2022-08-06T15:34:06.267Z,46.11
2022-08-06T15:39:10.115Z,46.67
2022-08-06T15:44:12.850Z,46.46
2022-08-06T15:49:20.702Z,45.31
2022-08-06T15:54:28.492Z,42.76
2022-08-06T15:59:50.622Z,45.00
2022-08-06T16:04:54.946Z,45.67
2022-08-06T16:10:03.236Z,44.87
2022-08-06T16:15:21.561Z,44.42
2022-08-06T16:20:31.199Z,44.83
2022-08-06T16:25:40.590Z,39.52
2022-08-06T16:31:11.278Z,40.79
2022-08-06T16:36:19.487Z,37.83
2022-08-06T16:41:56.706Z,36.67
2022-08-06T16:46:57.943Z,34.54
2022-08-06T16:52:43.923Z,35.81
2022-08-06T16:57:24.453Z,37.19
2022-08-06T17:02:42.226Z,35.21
2022-08-06T17:13:11.189Z,42.28
2022-08-06T17:18:13.738Z,45.98
2022-08-06T17:23:33.006Z,51.68
2022-08-06T17:28:40.099Z,50.48
2022-08-06T17:33:44.543Z,48.45
2022-08-06T17:38:48.439Z,48.02
2022-08-06T17:43:57.531Z,49.49
2022-08-06T17:49:00.409Z,52.79
2022-08-06T17:54:45.226Z,56.72
2022-08-06T17:59:33.318Z,59.85
2022-08-06T18:04:47.369Z,62.08
2022-08-06T18:10:16.467Z,60.43
2022-08-06T18:15:20.636Z,61.84
2022-08-06T18:20:32.537Z,63.09
2022-08-06T18:25:54.793Z,63.27
2022-08-06T18:31:00.268Z,65.08
2022-08-06T18:36:06.829Z,67.52
2022-08-06T18:41:15.304Z,68.18
2022-08-06T18:46:55.973Z,68.44
2022-08-06T18:51:42.375Z,73.31
2022-08-06T18:56:48.847Z,76.33
2022-08-06T19:01:52.358Z,77.76
2022-08-06T19:06:55.584Z,79.83
2022-08-06T19:11:59.704Z,83.88
2022-08-06T19:17:03.835Z,91.14
2022-08-06T19:22:09.400Z,91.23
2022-08-06T19:27:13.542Z,92.80
2022-08-06T19:32:28.663Z,92.24
2022-08-06T19:37:59.404Z,91.42
2022-08-06T19:44:26.982Z,92.86
2022-08-06T19:48:28.651Z,93.27
2022-08-06T19:53:32.855Z,93.56
2022-08-06T19:58:36.866Z,94.99
2022-08-06T20:03:41.960Z,97.56
2022-08-06T20:08:45.795Z,100.00
2022-08-06T20:13:52.371Z,100.00
2022-08-06T20:18:54.904Z,100.00
2022-08-06T20:23:58.552Z,100.00
2022-08-06T20:29:10.426Z,100.00
2022-08-06T20:34:28.988Z,100.00
2022-08-06T20:39:32.675Z,100.00
2022-08-06T20:44:37.060Z,100.00
2022-08-06T20:50:03.111Z,100.00
2022-08-06T20:55:05.503Z,100.00
2022-08-06T21:00:18.886Z,100.00
2022-08-06T21:05:28.112Z,100.00
2022-08-06T21:10:40.588Z,100.00
2022-08-06T21:16:05.621Z,100.00
2022-08-06T21:21:16.967Z,100.00
2022-08-06T21:26:24.834Z,100.00
2022-08-06T21:31:29.673Z,100.00
2022-08-06T21:36:34.562Z,100.00
2022-08-06T21:41:54.230Z,100.00
2022-08-06T21:47:01.318Z,100.00
2022-08-06T21:52:04.112Z,100.00
2022-08-06T21:57:12.244Z,100.00
2022-08-06T22:02:18.852Z,100.00
2022-08-06T22:07:25.001Z,100.00
2022-08-06T22:12:37.514Z,100.00
2022-08-06T22:18:02.031Z,100.00
2022-08-06T22:23:05.473Z,100.00
2022-08-06T22:28:11.071Z,100.00
2022-08-06T22:33:29.725Z,100.00
2022-08-06T22:38:36.166Z,100.00
2022-08-06T22:43:55.675Z,100.00
2022-08-06T22:49:00.967Z,100.00
2022-08-06T22:54:29.852Z,100.00
2022-08-06T23:00:07.198Z,100.00
2022-08-06T23:04:50.518Z,100.00
2022-08-06T23:09:53.383Z,100.00
2022-08-06T23:14:56.671Z,100.00
2022-08-06T23:20:00.668Z,100.00
2022-08-06T23:26:01.751Z,100.00
2022-08-06T23:30:26.303Z,100.00
2022-08-06T23:35:35.365Z,100.00
2022-08-06T23:40:39.656Z,100.00
2022-08-06T23:45:42.643Z,100.00
2022-08-06T23:50:50.393Z,100.00
2022-08-06T23:55:57.717Z,100.00
